sensor_id;sensor_type;location;lat;lon;timestamp;pressure;altitude;pressure_sealevel;temperature;humidity
75650;BME280;64245;51.282;22.494;2023-08-06T00:02:23;97832.13;;;18.34;100.00
75650;BME280;64245;51.282;22.494;2023-08-06T00:04:49;97830.25;;;18.34;100.00
75650;BME280;64245;51.282;22.494;2023-08-06T00:07:15;97820.97;;;18.23;100.00
75650;BME280;64245;51.282;22.494;2023-08-06T00:09:40;97820.34;;;18.21;100.00
75650;BME280;64245;51.282;22.494;2023-08-06T00:12:06;97803.19;;;18.03;100.00
75650;BME280;64245;51.282;22.494;2023-08-06T00:14:32;97822.41;;;18.08;100.00
75650;BME280;64245;51.282;22.494;2023-08-06T00:16:58;97819.44;;;18.09;100.00
75650;BME280;64245;51.282;22.494;2023-08-06T00:19:24;97816.59;;;18.04;100.00
75650;BME280;64245;51.282;22.494;2023-08-06T00:21:49;97798.34;;;18.05;100.00
75650;BME280;64245;51.282;22.494;2023-08-06T00:24:15;97797.06;;;18.07;100.00
75650;BME280;64245;51.282;22.494;2023-08-06T00:26:41;97793.13;;;18.03;100.00
75650;BME280;64245;51.282;22.494;2023-08-06T00:29:06;97794.78;;;18.04;100.00
75650;BME280;64245;51.282;22.494;2023-08-06T00:31:32;97796.13;;;18.13;100.00
75650;BME280;64245;51.282;22.494;2023-08-06T00:33:58;97790.69;;;18.13;100.00
75650;BME280;64245;51.282;22.494;2023-08-06T00:36:23;97780.19;;;17.99;100.00
75650;BME280;64245;51.282;22.494;2023-08-06T00:38:49;97763.91;;;17.92;100.00
75650;BME280;64245;51.282;22.494;2023-08-06T00:41:15;97783.13;;;17.97;100.00
75650;BME280;64245;51.282;22.494;2023-08-06T00:43:41;97773.53;;;17.94;100.00
75650;BME280;64245;51.282;22.494;2023-08-06T00:46:06;97771.84;;;17.93;100.00
75650;BME280;64245;51.282;22.494;2023-08-06T00:48:32;97764.97;;;17.91;100.00
75650;BME280;64245;51.282;22.494;2023-08-06T00:51:00;97761.91;;;17.87;100.00
75650;BME280;64245;51.282;22.494;2023-08-06T00:53:26;97765.69;;;17.86;100.00
75650;BME280;64245;51.282;22.494;2023-08-06T00:55:52;97759.84;;;17.83;100.00
75650;BME280;64245;51.282;22.494;2023-08-06T00:58:18;97766.63;;;17.92;100.00
75650;BME280;64245;51.282;22.494;2023-08-06T01:00:44;97762.50;;;17.89;100.00
75650;BME280;64245;51.282;22.494;2023-08-06T01:03:09;97764.84;;;17.86;100.00
75650;BME280;64245;51.282;22.494;2023-08-06T01:05:35;97752.06;;;17.68;100.00
75650;BME280;64245;51.282;22.494;2023-08-06T01:10:39;97761.34;;;17.79;100.00
75650;BME280;64245;51.282;22.494;2023-08-06T01:13:20;97757.19;;;17.76;100.00
75650;BME280;64245;51.282;22.494;2023-08-06T01:15:50;97754.94;;;17.73;100.00
75650;BME280;64245;51.282;22.494;2023-08-06T01:18:17;97754.69;;;17.75;100.00
75650;BME280;64245;51.282;22.494;2023-08-06T01:20:43;97756.22;;;17.71;100.00
75650;BME280;64245;51.282;22.494;2023-08-06T01:23:09;97727.59;;;17.61;100.00
75650;BME280;64245;51.282;22.494;2023-08-06T01:25:59;97736.56;;;17.69;100.00
75650;BME280;64245;51.282;22.494;2023-08-06T01:31:24;97737.16;;;17.71;100.00
75650;BME280;64245;51.282;22.494;2023-08-06T01:33:50;97720.91;;;17.64;100.00
75650;BME280;64245;51.282;22.494;2023-08-06T01:36:19;97723.00;;;17.62;100.00
75650;BME280;64245;51.282;22.494;2023-08-06T01:38:45;97723.81;;;17.63;100.00
75650;BME280;64245;51.282;22.494;2023-08-06T01:41:12;97718.44;;;17.56;100.00
75650;BME280;64245;51.282;22.494;2023-08-06T01:43:37;97718.38;;;17.63;100.00
75650;BME280;64245;51.282;22.494;2023-08-06T01:46:03;97709.38;;;17.62;100.00
75650;BME280;64245;51.282;22.494;2023-08-06T01:48:28;97706.28;;;17.58;100.00
75650;BME280;64245;51.282;22.494;2023-08-06T01:50:54;97702.03;;;17.63;100.00
75650;BME280;64245;51.282;22.494;2023-08-06T01:53:20;97700.38;;;17.61;100.00
75650;BME280;64245;51.282;22.494;2023-08-06T01:55:49;97690.56;;;17.60;100.00
75650;BME280;64245;51.282;22.494;2023-08-06T01:58:14;97670.59;;;17.48;100.00
75650;BME280;64245;51.282;22.494;2023-08-06T02:00:40;97670.00;;;17.46;100.00
75650;BME280;64245;51.282;22.494;2023-08-06T02:03:06;97689.94;;;17.58;100.00
75650;BME280;64245;51.282;22.494;2023-08-06T02:05:32;97681.78;;;17.58;100.00
75650;BME280;64245;51.282;22.494;2023-08-06T02:07:57;97661.28;;;17.56;100.00
75650;BME280;64245;51.282;22.494;2023-08-06T02:10:23;97672.16;;;17.56;100.00
75650;BME280;64245;51.282;22.494;2023-08-06T02:12:49;97672.31;;;17.61;100.00
75650;BME280;64245;51.282;22.494;2023-08-06T02:15:15;97664.16;;;17.61;100.00
75650;BME280;64245;51.282;22.494;2023-08-06T02:17:41;97649.19;;;17.52;100.00
75650;BME280;64245;51.282;22.494;2023-08-06T02:20:07;97664.75;;;17.63;100.00
75650;BME280;64245;51.282;22.494;2023-08-06T02:22:32;97653.34;;;17.54;100.00
75650;BME280;64245;51.282;22.494;2023-08-06T02:24:59;97655.22;;;17.54;100.00
75650;BME280;64245;51.282;22.494;2023-08-06T02:27:25;97644.91;;;17.44;100.00
75650;BME280;64245;51.282;22.494;2023-08-06T02:29:50;97651.06;;;17.51;100.00
75650;BME280;64245;51.282;22.494;2023-08-06T02:32:16;97640.66;;;17.48;100.00
75650;BME280;64245;51.282;22.494;2023-08-06T02:34:42;97643.16;;;17.50;100.00
75650;BME280;64245;51.282;22.494;2023-08-06T02:37:08;97636.88;;;17.49;100.00
75650;BME280;64245;51.282;22.494;2023-08-06T02:39:33;97640.28;;;17.45;100.00
75650;BME280;64245;51.282;22.494;2023-08-06T02:42:01;97644.91;;;17.44;100.00
75650;BME280;64245;51.282;22.494;2023-08-06T02:44:27;97636.28;;;17.47;100.00
75650;BME280;64245;51.282;22.494;2023-08-06T02:46:53;97627.88;;;17.49;100.00
75650;BME280;64245;51.282;22.494;2023-08-06T02:49:19;97631.66;;;17.48;100.00
75650;BME280;64245;51.282;22.494;2023-08-06T02:51:45;97634.25;;;17.43;100.00
75650;BME280;64245;51.282;22.494;2023-08-06T02:54:11;97644.44;;;17.47;100.00
75650;BME280;64245;51.282;22.494;2023-08-06T02:56:36;97636.75;;;17.44;100.00
75650;BME280;64245;51.282;22.494;2023-08-06T02:59:03;97635.91;;;17.44;100.00
75650;BME280;64245;51.282;22.494;2023-08-06T03:01:29;97633.09;;;17.50;100.00
75650;BME280;64245;51.282;22.494;2023-08-06T03:03:55;97625.91;;;17.56;100.00
75650;BME280;64245;51.282;22.494;2023-08-06T03:06:21;97617.72;;;17.56;100.00
75650;BME280;64245;51.282;22.494;2023-08-06T03:08:47;97621.50;;;17.55;100.00
75650;BME280;64245;51.282;22.494;2023-08-06T03:11:12;97627.34;;;17.58;100.00
75650;BME280;64245;51.282;22.494;2023-08-06T03:13:38;97629.19;;;17.65;100.00
75650;BME280;64245;51.282;22.494;2023-08-06T03:16:04;97611.44;;;17.55;100.00
75650;BME280;64245;51.282;22.494;2023-08-06T03:18:29;97626.34;;;17.71;100.00
75650;BME280;64245;51.282;22.494;2023-08-06T03:20:55;97630.00;;;17.65;100.00
75650;BME280;64245;51.282;22.494;2023-08-06T03:23:22;97623.03;;;17.69;100.00
75650;BME280;64245;51.282;22.494;2023-08-06T03:25:48;97611.31;;;17.69;100.00
75650;BME280;64245;51.282;22.494;2023-08-06T03:28:13;97617.13;;;17.72;100.00
75650;BME280;64245;51.282;22.494;2023-08-06T03:30:39;97617.03;;;17.79;100.00
75650;BME280;64245;51.282;22.494;2023-08-06T03:33:05;97610.75;;;17.78;100.00
75650;BME280;64245;51.282;22.494;2023-08-06T03:35:31;97612.19;;;17.81;100.00
75650;BME280;64245;51.282;22.494;2023-08-06T03:37:56;97607.25;;;17.89;100.00
75650;BME280;64245;51.282;22.494;2023-08-06T03:40:22;97605.00;;;17.98;100.00
75650;BME280;64245;51.282;22.494;2023-08-06T03:42:48;97605.97;;;18.04;100.00
75650;BME280;64245;51.282;22.494;2023-08-06T03:45:13;97586.22;;;18.08;100.00
75650;BME280;64245;51.282;22.494;2023-08-06T03:47:39;97584.66;;;18.12;100.00
75650;BME280;64245;51.282;22.494;2023-08-06T03:50:05;97587.28;;;18.19;100.00
75650;BME280;64245;51.282;22.494;2023-08-06T03:52:31;97564.91;;;18.17;100.00
75650;BME280;64245;51.282;22.494;2023-08-06T03:54:56;97578.66;;;18.34;100.00
75650;BME280;64245;51.282;22.494;2023-08-06T03:57:22;97578.31;;;18.42;100.00
75650;BME280;64245;51.282;22.494;2023-08-06T03:59:48;97575.72;;;18.47;100.00
75650;BME280;64245;51.282;22.494;2023-08-06T04:02:13;97563.25;;;18.51;100.00
75650;BME280;64245;51.282;22.494;2023-08-06T04:04:39;97566.56;;;18.53;100.00
75650;BME280;64245;51.282;22.494;2023-08-06T04:07:05;97557.91;;;18.56;100.00
75650;BME280;64245;51.282;22.494;2023-08-06T04:09:31;97564.81;;;18.58;100.00
75650;BME280;64245;51.282;22.494;2023-08-06T04:11:57;97561.25;;;18.58;100.00
75650;BME280;64245;51.282;22.494;2023-08-06T04:14:25;97560.22;;;18.59;100.00
75650;BME280;64245;51.282;22.494;2023-08-06T04:16:51;97553.47;;;18.61;100.00
75650;BME280;64245;51.282;22.494;2023-08-06T04:19:17;97561.25;;;18.58;100.00
75650;BME280;64245;51.282;22.494;2023-08-06T04:21:43;97547.00;;;18.56;100.00
75650;BME280;64245;51.282;22.494;2023-08-06T04:24:08;97550.56;;;18.56;100.00
75650;BME280;64245;51.282;22.494;2023-08-06T04:26:34;97549.44;;;18.64;100.00
75650;BME280;64245;51.282;22.494;2023-08-06T04:28:59;97547.16;;;18.73;100.00
75650;BME280;64245;51.282;22.494;2023-08-06T04:31:25;97544.16;;;18.86;100.00
75650;BME280;64245;51.282;22.494;2023-08-06T04:33:51;97542.13;;;18.93;100.00
75650;BME280;64245;51.282;22.494;2023-08-06T04:36:17;97545.22;;;18.96;100.00
75650;BME280;64245;51.282;22.494;2023-08-06T04:38:42;97542.22;;;19.10;100.00
75650;BME280;64245;51.282;22.494;2023-08-06T04:41:11;97534.72;;;19.17;100.00
75650;BME280;64245;51.282;22.494;2023-08-06T04:43:36;97545.84;;;19.27;100.00
75650;BME280;64245;51.282;22.494;2023-08-06T04:46:02;97543.56;;;19.36;100.00
75650;BME280;64245;51.282;22.494;2023-08-06T04:48:28;97533.47;;;19.36;100.00
75650;BME280;64245;51.282;22.494;2023-08-06T04:50:54;97534.66;;;19.40;100.00
75650;BME280;64245;51.282;22.494;2023-08-06T04:53:20;97528.56;;;19.50;100.00
75650;BME280;64245;51.282;22.494;2023-08-06T04:55:46;97534.06;;;19.66;100.00
75650;BME280;64245;51.282;22.494;2023-08-06T04:58:12;97515.94;;;19.60;100.00
75650;BME280;64245;51.282;22.494;2023-08-06T05:00:38;97528.69;;;19.72;100.00
75650;BME280;64245;51.282;22.494;2023-08-06T05:03:06;97516.81;;;19.78;99.69
75650;BME280;64245;51.282;22.494;2023-08-06T05:05:32;97518.38;;;19.90;99.07
75650;BME280;64245;51.282;22.494;2023-08-06T05:07:58;97510.50;;;19.94;97.65
75650;BME280;64245;51.282;22.494;2023-08-06T05:10:25;97512.06;;;20.07;96.66
75650;BME280;64245;51.282;22.494;2023-08-06T05:12:50;97501.72;;;20.09;96.39
75650;BME280;64245;51.282;22.494;2023-08-06T05:15:16;97510.09;;;20.19;95.72
75650;BME280;64245;51.282;22.494;2023-08-06T05:17:42;97494.69;;;20.13;96.56
75650;BME280;64245;51.282;22.494;2023-08-06T05:20:08;97501.72;;;20.25;95.55
75650;BME280;64245;51.282;22.494;2023-08-06T05:22:34;97509.63;;;20.39;94.54
75650;BME280;64245;51.282;22.494;2023-08-06T05:25:00;97496.59;;;20.46;95.27
75650;BME280;64245;51.282;22.494;2023-08-06T05:27:25;97493.94;;;20.51;94.28
75650;BME280;64245;51.282;22.494;2023-08-06T05:29:54;97502.84;;;20.63;93.11
75650;BME280;64245;51.282;22.494;2023-08-06T05:32:20;97492.81;;;20.68;92.59
75650;BME280;64245;51.282;22.494;2023-08-06T05:34:46;97499.22;;;20.79;91.87
75650;BME280;64245;51.282;22.494;2023-08-06T05:37:12;97506.50;;;20.90;90.70
75650;BME280;64245;51.282;22.494;2023-08-06T05:39:37;97511.59;;;21.03;91.37
75650;BME280;64245;51.282;22.494;2023-08-06T05:42:03;97507.84;;;21.10;91.17
75650;BME280;64245;51.282;22.494;2023-08-06T05:44:29;97508.31;;;21.23;89.62
75650;BME280;64245;51.282;22.494;2023-08-06T05:46:55;97505.38;;;21.30;90.24
75650;BME280;64245;51.282;22.494;2023-08-06T05:49:21;97499.97;;;21.35;87.21
75650;BME280;64245;51.282;22.494;2023-08-06T05:51:46;97479.00;;;21.24;87.54
75650;BME280;64245;51.282;22.494;2023-08-06T05:54:12;97494.19;;;21.36;87.29
75650;BME280;64245;51.282;22.494;2023-08-06T05:56:37;97493.50;;;21.46;88.49
75650;BME280;64245;51.282;22.494;2023-08-06T05:59:03;97484.44;;;21.46;88.11
75650;BME280;64245;51.282;22.494;2023-08-06T06:01:29;97473.50;;;21.46;86.58
75650;BME280;64245;51.282;22.494;2023-08-06T06:03:55;97476.63;;;21.54;87.14
75650;BME280;64245;51.282;22.494;2023-08-06T06:06:20;97480.22;;;21.60;87.49
75650;BME280;64245;51.282;22.494;2023-08-06T06:08:46;97478.34;;;21.65;87.97
75650;BME280;64245;51.282;22.494;2023-08-06T06:11:11;97473.25;;;21.74;86.59
75650;BME280;64245;51.282;22.494;2023-08-06T06:13:37;97477.97;;;21.84;86.84
75650;BME280;64245;51.282;22.494;2023-08-06T06:16:03;97478.34;;;21.92;87.13
75650;BME280;64245;51.282;22.494;2023-08-06T06:18:29;97473.94;;;21.96;86.52
75650;BME280;64245;51.282;22.494;2023-08-06T06:20:54;97477.66;;;22.07;85.30
75650;BME280;64245;51.282;22.494;2023-08-06T06:23:20;97463.41;;;22.10;85.65
75650;BME280;64245;51.282;22.494;2023-08-06T06:25:49;97481.63;;;22.26;85.03
75650;BME280;64245;51.282;22.494;2023-08-06T06:28:18;97480.59;;;22.37;84.25
75650;BME280;64245;51.282;22.494;2023-08-06T06:30:43;97487.25;;;22.47;85.28
75650;BME280;64245;51.282;22.494;2023-08-06T06:33:09;97479.91;;;22.57;84.56
75650;BME280;64245;51.282;22.494;2023-08-06T06:35:35;97473.13;;;22.70;86.27
75650;BME280;64245;51.282;22.494;2023-08-06T06:38:01;97472.56;;;22.73;84.09
75650;BME280;64245;51.282;22.494;2023-08-06T06:40:26;97479.28;;;22.87;83.21
75650;BME280;64245;51.282;22.494;2023-08-06T06:42:52;97476.28;;;22.94;82.30
75650;BME280;64245;51.282;22.494;2023-08-06T06:45:18;97472.50;;;23.05;83.53
75650;BME280;64245;51.282;22.494;2023-08-06T06:47:43;97473.03;;;23.12;81.94
75650;BME280;64245;51.282;22.494;2023-08-06T06:50:09;97477.72;;;23.12;81.00
75650;BME280;64245;51.282;22.494;2023-08-06T06:52:35;97471.69;;;23.15;81.45
75650;BME280;64245;51.282;22.494;2023-08-06T06:55:01;97483.81;;;23.24;82.38
75650;BME280;64245;51.282;22.494;2023-08-06T06:57:27;97473.66;;;23.24;81.95
75650;BME280;64245;51.282;22.494;2023-08-06T06:59:52;97473.41;;;23.36;82.43
75650;BME280;64245;51.282;22.494;2023-08-06T07:02:18;97464.34;;;23.40;80.70
75650;BME280;64245;51.282;22.494;2023-08-06T07:04:44;97471.84;;;23.60;79.90
75650;BME280;64245;51.282;22.494;2023-08-06T07:07:09;97465.25;;;23.66;79.52
75650;BME280;64245;51.282;22.494;2023-08-06T07:09:35;97472.41;;;23.77;80.74
75650;BME280;64245;51.282;22.494;2023-08-06T07:12:01;97473.78;;;23.90;81.08
75650;BME280;64245;51.282;22.494;2023-08-06T07:14:28;97458.66;;;23.98;81.14
75650;BME280;64245;51.282;22.494;2023-08-06T07:16:54;97458.09;;;24.11;79.88
75650;BME280;64245;51.282;22.494;2023-08-06T07:19:20;97445.47;;;24.30;79.40
75650;BME280;64245;51.282;22.494;2023-08-06T07:21:46;97444.63;;;24.40;78.04
75650;BME280;64245;51.282;22.494;2023-08-06T07:24:11;97452.00;;;24.60;77.69
75650;BME280;64245;51.282;22.494;2023-08-06T07:26:38;97431.38;;;24.52;74.82
75650;BME280;64245;51.282;22.494;2023-08-06T07:29:03;97436.84;;;24.67;74.74
75650;BME280;64245;51.282;22.494;2023-08-06T07:31:29;97443.69;;;24.75;75.21
75650;BME280;64245;51.282;22.494;2023-08-06T07:33:55;97446.16;;;24.82;75.99
75650;BME280;64245;51.282;22.494;2023-08-06T07:36:21;97445.84;;;24.93;74.41
75650;BME280;64245;51.282;22.494;2023-08-06T07:38:46;97442.84;;;24.95;73.65
75650;BME280;64245;51.282;22.494;2023-08-06T07:41:14;97444.47;;;25.01;74.45
75650;BME280;64245;51.282;22.494;2023-08-06T07:43:39;97442.78;;;25.05;73.37
75650;BME280;64245;51.282;22.494;2023-08-06T07:46:05;97448.50;;;25.19;74.46
75650;BME280;64245;51.282;22.494;2023-08-06T07:48:31;97444.66;;;25.20;73.26
75650;BME280;64245;51.282;22.494;2023-08-06T07:50:57;97436.34;;;25.25;74.43
75650;BME280;64245;51.282;22.494;2023-08-06T07:53:24;97437.66;;;25.37;73.99
75650;BME280;64245;51.282;22.494;2023-08-06T07:55:53;97387.63;;;25.15;72.77
75650;BME280;64245;51.282;22.494;2023-08-06T07:58:20;97436.72;;;25.57;75.66
75650;BME280;64245;51.282;22.494;2023-08-06T08:00:46;97443.56;;;25.65;72.03
75650;BME280;64245;51.282;22.494;2023-08-06T08:03:13;97439.94;;;25.69;71.40
75650;BME280;64245;51.282;22.494;2023-08-06T08:05:40;97446.53;;;25.73;71.00
75650;BME280;64245;51.282;22.494;2023-08-06T08:08:06;97438.25;;;25.78;71.01
75650;BME280;64245;51.282;22.494;2023-08-06T08:10:33;97435.41;;;25.84;71.19
75650;BME280;64245;51.282;22.494;2023-08-06T08:13:01;97436.00;;;25.80;69.78
75650;BME280;64245;51.282;22.494;2023-08-06T08:15:28;97431.56;;;25.85;70.89
75650;BME280;64245;51.282;22.494;2023-08-06T08:17:54;97432.25;;;26.00;70.62
75650;BME280;64245;51.282;22.494;2023-08-06T08:20:20;97442.34;;;26.15;68.90
75650;BME280;64245;51.282;22.494;2023-08-06T08:22:46;97432.44;;;26.09;67.69
75650;BME280;64245;51.282;22.494;2023-08-06T08:25:12;97428.28;;;26.11;67.15
75650;BME280;64245;51.282;22.494;2023-08-06T08:27:38;97427.72;;;26.14;66.63
75650;BME280;64245;51.282;22.494;2023-08-06T08:30:04;97430.22;;;26.11;65.89
75650;BME280;64245;51.282;22.494;2023-08-06T08:32:30;97424.59;;;26.21;67.12
75650;BME280;64245;51.282;22.494;2023-08-06T08:34:56;97426.66;;;26.39;68.22
75650;BME280;64245;51.282;22.494;2023-08-06T08:37:23;97414.66;;;26.54;65.85
75650;BME280;64245;51.282;22.494;2023-08-06T08:39:49;97402.16;;;26.57;65.45
75650;BME280;64245;51.282;22.494;2023-08-06T08:42:16;97413.44;;;26.84;66.83
75650;BME280;64245;51.282;22.494;2023-08-06T08:44:42;97412.09;;;26.81;64.58
75650;BME280;64245;51.282;22.494;2023-08-06T08:47:10;97411.22;;;26.86;63.76
75650;BME280;64245;51.282;22.494;2023-08-06T08:49:37;97401.75;;;26.92;66.36
75650;BME280;64245;51.282;22.494;2023-08-06T08:52:04;97396.06;;;27.07;63.78
75650;BME280;64245;51.282;22.494;2023-08-06T08:54:37;97396.59;;;27.28;63.24
75650;BME280;64245;51.282;22.494;2023-08-06T08:57:03;97384.03;;;27.36;64.14
75650;BME280;64245;51.282;22.494;2023-08-06T08:59:29;97388.31;;;27.28;61.54
75650;BME280;64245;51.282;22.494;2023-08-06T09:01:56;97383.91;;;27.27;62.77
75650;BME280;64245;51.282;22.494;2023-08-06T09:04:22;97382.84;;;27.42;62.50
75650;BME280;64245;51.282;22.494;2023-08-06T09:06:50;97364.63;;;27.22;62.88
75650;BME280;64245;51.282;22.494;2023-08-06T09:11:51;97366.84;;;27.58;61.88
75650;BME280;64245;51.282;22.494;2023-08-06T09:14:17;97373.47;;;27.75;65.11
75650;BME280;64245;51.282;22.494;2023-08-06T09:16:43;97363.84;;;27.73;61.25
75650;BME280;64245;51.282;22.494;2023-08-06T09:19:10;97373.19;;;27.77;61.54
75650;BME280;64245;51.282;22.494;2023-08-06T09:21:37;97368.25;;;27.74;59.76
75650;BME280;64245;51.282;22.494;2023-08-06T09:24:12;97367.59;;;27.63;59.84
75650;BME280;64245;51.282;22.494;2023-08-06T09:26:39;97357.41;;;27.77;62.02
75650;BME280;64245;51.282;22.494;2023-08-06T09:29:06;97363.69;;;27.83;62.52
75650;BME280;64245;51.282;22.494;2023-08-06T09:31:46;97345.13;;;27.83;61.86
75650;BME280;64245;51.282;22.494;2023-08-06T09:34:20;97352.94;;;27.63;61.62
75650;BME280;64245;51.282;22.494;2023-08-06T09:36:48;97332.25;;;27.60;57.91
75650;BME280;64245;51.282;22.494;2023-08-06T09:39:21;97341.16;;;27.90;61.90
75650;BME280;64245;51.282;22.494;2023-08-06T09:41:47;97329.00;;;28.04;61.67
75650;BME280;64245;51.282;22.494;2023-08-06T09:44:17;97320.13;;;28.21;58.37
75650;BME280;64245;51.282;22.494;2023-08-06T09:46:54;97331.09;;;28.40;59.64
75650;BME280;64245;51.282;22.494;2023-08-06T09:49:42;97307.66;;;28.18;55.82
75650;BME280;64245;51.282;22.494;2023-08-06T09:52:12;97302.34;;;28.08;58.48
75650;BME280;64245;51.282;22.494;2023-08-06T09:54:39;97330.56;;;28.38;57.00
75650;BME280;64245;51.282;22.494;2023-08-06T09:57:05;97331.91;;;28.40;57.32
75650;BME280;64245;51.282;22.494;2023-08-06T09:59:32;97323.50;;;28.32;57.89
75650;BME280;64245;51.282;22.494;2023-08-06T10:01:58;97320.13;;;28.21;62.09
75650;BME280;64245;51.282;22.494;2023-08-06T10:04:25;97302.34;;;28.49;61.53
75650;BME280;64245;51.282;22.494;2023-08-06T10:06:51;97299.56;;;28.77;58.44
75650;BME280;64245;51.282;22.494;2023-08-06T10:09:18;97303.97;;;29.05;56.63
75650;BME280;64245;51.282;22.494;2023-08-06T10:11:50;97306.75;;;28.92;57.36
75650;BME280;64245;51.282;22.494;2023-08-06T10:14:20;97296.41;;;28.83;56.34
75650;BME280;64245;51.282;22.494;2023-08-06T10:16:48;97299.66;;;28.99;56.61
75650;BME280;64245;51.282;22.494;2023-08-06T10:19:16;97288.94;;;28.84;57.22
75650;BME280;64245;51.282;22.494;2023-08-06T10:22:12;97286.63;;;29.00;58.83
75650;BME280;64245;51.282;22.494;2023-08-06T10:24:55;97274.91;;;29.03;56.58
75650;BME280;64245;51.282;22.494;2023-08-06T10:29:48;97281.47;;;29.29;55.37
75650;BME280;64245;51.282;22.494;2023-08-06T10:32:17;97283.41;;;29.29;54.26
75650;BME280;64245;51.282;22.494;2023-08-06T10:34:59;97282.03;;;29.17;55.69
75650;BME280;64245;51.282;22.494;2023-08-06T10:37:36;97258.28;;;29.25;53.14
75650;BME280;64245;51.282;22.494;2023-08-06T10:40:03;97277.88;;;29.42;53.22
75650;BME280;64245;51.282;22.494;2023-08-06T10:42:29;97268.34;;;29.57;50.96
75650;BME280;64245;51.282;22.494;2023-08-06T10:45:15;97264.03;;;29.51;52.02
75650;BME280;64245;51.282;22.494;2023-08-06T10:47:42;97266.41;;;29.66;50.59
75650;BME280;64245;51.282;22.494;2023-08-06T10:50:14;97270.59;;;29.86;53.51
75650;BME280;64245;51.282;22.494;2023-08-06T10:52:43;97276.53;;;29.93;50.52
75650;BME280;64245;51.282;22.494;2023-08-06T10:55:09;97256.41;;;29.87;51.10
75650;BME280;64245;51.282;22.494;2023-08-06T10:57:35;97253.50;;;29.93;51.35
75650;BME280;64245;51.282;22.494;2023-08-06T11:00:04;97246.88;;;30.02;51.71
75650;BME280;64245;51.282;22.494;2023-08-06T11:02:36;97244.81;;;29.85;50.59
75650;BME280;64245;51.282;22.494;2023-08-06T11:05:06;97229.13;;;29.50;51.42
75650;BME280;64245;51.282;22.494;2023-08-06T11:07:32;97219.63;;;29.42;52.25
75650;BME280;64245;51.282;22.494;2023-08-06T11:10:03;97214.38;;;29.41;53.55
75650;BME280;64245;51.282;22.494;2023-08-06T11:12:30;97207.84;;;29.68;55.55
75650;BME280;64245;51.282;22.494;2023-08-06T11:14:55;97204.44;;;30.10;54.83
75650;BME280;64245;51.282;22.494;2023-08-06T11:17:21;97192.44;;;30.41;52.33
75650;BME280;64245;51.282;22.494;2023-08-06T11:19:47;97184.59;;;30.34;50.79
75650;BME280;64245;51.282;22.494;2023-08-06T11:22:16;97183.63;;;30.39;53.76
75650;BME280;64245;51.282;22.494;2023-08-06T11:24:42;97191.28;;;30.42;50.94
75650;BME280;64245;51.282;22.494;2023-08-06T11:27:11;97193.34;;;30.59;51.33
75650;BME280;64245;51.282;22.494;2023-08-06T11:29:38;97204.31;;;30.24;48.62
75650;BME280;64245;51.282;22.494;2023-08-06T11:32:11;97204.00;;;30.26;50.35
75650;BME280;64245;51.282;22.494;2023-08-06T11:34:39;97209.31;;;30.53;49.03
75650;BME280;64245;51.282;22.494;2023-08-06T11:37:06;97209.19;;;30.01;49.22
75650;BME280;64245;51.282;22.494;2023-08-06T11:39:33;97192.88;;;30.17;52.80
75650;BME280;64245;51.282;22.494;2023-08-06T11:41:59;97210.50;;;30.86;48.94
75650;BME280;64245;51.282;22.494;2023-08-06T11:44:30;97222.88;;;30.54;48.88
75650;BME280;64245;51.282;22.494;2023-08-06T11:46:57;97212.88;;;29.66;50.81
75650;BME280;64245;51.282;22.494;2023-08-06T11:54:35;97196.97;;;28.82;58.90
75650;BME280;64245;51.282;22.494;2023-08-06T11:57:04;97216.03;;;28.70;56.54
75650;BME280;64245;51.282;22.494;2023-08-06T11:59:30;97214.88;;;28.48;57.04
75650;BME280;64245;51.282;22.494;2023-08-06T12:01:56;97229.03;;;28.33;59.58
75650;BME280;64245;51.282;22.494;2023-08-06T12:04:22;97230.97;;;28.19;57.13
75650;BME280;64245;51.282;22.494;2023-08-06T12:06:47;97223.81;;;28.04;57.18
75650;BME280;64245;51.282;22.494;2023-08-06T12:09:13;97232.34;;;28.22;57.66
75650;BME280;64245;51.282;22.494;2023-08-06T12:11:39;97237.13;;;28.16;56.61
75650;BME280;64245;51.282;22.494;2023-08-06T12:14:05;97229.34;;;28.18;57.81
75650;BME280;64245;51.282;22.494;2023-08-06T12:16:30;97239.38;;;27.87;59.05
75650;BME280;64245;51.282;22.494;2023-08-06T12:18:59;97233.63;;;27.69;61.51
75650;BME280;64245;51.282;22.494;2023-08-06T12:21:25;97245.22;;;27.52;62.87
75650;BME280;64245;51.282;22.494;2023-08-06T12:23:51;97249.69;;;27.35;63.90
75650;BME280;64245;51.282;22.494;2023-08-06T12:26:16;97245.59;;;27.32;62.21
75650;BME280;64245;51.282;22.494;2023-08-06T12:28:42;97226.41;;;27.22;59.92
75650;BME280;64245;51.282;22.494;2023-08-06T12:31:08;97228.66;;;27.20;64.78
75650;BME280;64245;51.282;22.494;2023-08-06T12:33:34;97230.25;;;27.07;65.05
75650;BME280;64245;51.282;22.494;2023-08-06T12:36:00;97236.97;;;26.82;66.64
75650;BME280;64245;51.282;22.494;2023-08-06T12:38:26;97247.53;;;26.57;71.20
75650;BME280;64245;51.282;22.494;2023-08-06T12:40:51;97245.31;;;26.16;70.47
75650;BME280;64245;51.282;22.494;2023-08-06T12:43:17;97248.88;;;25.69;69.54
75650;BME280;64245;51.282;22.494;2023-08-06T12:45:43;97264.03;;;25.37;71.69
75650;BME280;64245;51.282;22.494;2023-08-06T12:48:08;97252.25;;;25.27;72.97
75650;BME280;64245;51.282;22.494;2023-08-06T12:50:34;97271.94;;;25.15;72.83
75650;BME280;64245;51.282;22.494;2023-08-06T12:53:00;97268.88;;;25.17;73.06
75650;BME280;64245;51.282;22.494;2023-08-06T12:55:26;97260.94;;;25.10;72.86
75650;BME280;64245;51.282;22.494;2023-08-06T12:57:52;97263.94;;;25.13;72.11
75650;BME280;64245;51.282;22.494;2023-08-06T13:00:17;97270.25;;;26.54;68.12